Pagrindinis puslapis
METAR-TAF:

METAR-TAF

Oro uostai :

Coleman, Teksasas, Jungtinės Amerikos Valstijos

platuma: 31-50-28N, ilguma: 099-24-12W, Aukštis: 517 m

Dabartinis oras

Ataskaita buvo paskelbta 23 minutes, ne 11:15 UTC
Ramus vėjas
Temperatūra 4°C
Drėgmė 81%
Slėgis 1015 hPa
Matomumas: 16.1 km
Giedras dangus

METAR: KCOM 191115Z AUTO 00000KT 10SM CLR 04/01 A2997 RMK AO2 T00370006

Laikas: 04:38 (11:38 UTC)


TAF: trūkstamas

Orai ataskaitas ir orų prognozės (METAR, TAF).

turimą stotys yra geltonos ir raudonos taškus žemėlapyje.

Perkelti pele per norėdami pamatyti stoties vardą.

Tada spustelėkite, norėdami matyti oro stebėjimo ir prognozės.

Norėdami pakeisti žemėlapį: spustelėkite ant žalios mygtukų su juodo kryžiaus žemyn,; žalią mygtuką su brūkšneliu, jei norite nutolinti; arba žalių rodyklių gretimoms žemėlapius.


METAR-TAF: